Time;durP1;ratioP1;P1;durP2;ratioP2;P2;SDS_P1;SDS_P2;PMS_P1;PMS_P2;Temp;Humidity;BMP_temperature;BMP_pressure;BME280_temperature;BME280_humidity;BME280_pressure;Samples;Min_cycle;Max_cycle;Signal;HPM_P1;HPM_P2
2021/03/11 00:00:36;;;;;;;54.00;30.05;;;102.40;1638.40;;;;;;5071190;28;20032;-64
2021/03/11 00:03:05;;;;;;;53.53;28.35;;;102.40;1638.40;;;;;;5067745;28;20467;-66
2021/03/11 00:05:31;;;;;;;53.58;28.58;;;102.40;1664.00;;;;;;5071608;28;20032;-66
2021/03/11 00:07:57;;;;;;;54.13;29.83;;;102.50;1664.00;;;;;;5071488;28;20031;-66
2021/03/11 00:10:23;;;;;;;56.28;30.92;;;102.50;1689.60;;;;;;5073871;28;20032;-65
2021/03/11 00:12:48;;;;;;;56.50;29.98;;;102.40;1689.60;;;;;;5075316;28;20060;-65
2021/03/11 00:15:17;;;;;;;68.95;33.80;;;102.40;1689.60;;;;;;5075145;28;20025;-65
2021/03/11 00:17:43;;;;;;;;;;;102.50;1689.60;;;;;;5075614;28;20028;-66
2021/03/11 00:20:15;;;;;;;61.40;32.03;;;102.40;1715.20;;;;;;5077746;28;20334;-63
2021/03/11 00:22:41;;;;;;;63.30;33.72;;;102.40;1715.20;;;;;;5085795;28;20028;-66
2021/03/11 00:25:09;;;;;;;65.50;36.15;;;102.50;1689.60;;;;;;5074771;28;20032;-65
2021/03/11 00:27:35;;;;;;;56.97;33.22;;;102.70;1689.60;;;;;;5075247;28;20024;-66
2021/03/11 00:30:01;;;;;;;48.92;29.45;;;102.80;1664.00;;;;;;5074954;28;20119;-65
2021/03/11 00:32:27;;;;;;;47.17;27.17;;;102.80;1638.40;;;;;;5075262;28;20039;-66
2021/03/11 00:34:52;;;;;;;46.20;25.30;;;102.80;1612.80;;;;;;5074799;28;20028;-66
2021/03/11 00:37:18;;;;;;;43.55;25.20;;;102.90;1612.80;;;;;;5074899;28;20371;-65
2021/03/11 00:39:44;;;;;;;49.00;25.08;;;102.80;1536.00;;;;;;5074949;28;20036;-65
2021/03/11 00:42:09;;;;;;;49.17;26.38;;;102.80;1536.00;;;;;;5074856;28;20463;-64
2021/03/11 00:44:35;;;;;;;57.75;29.27;;;102.80;1561.60;;;;;;5074498;28;20032;-65
2021/03/11 00:47:03;;;;;;;54.97;29.48;;;102.90;1536.00;;;;;;5075247;28;20047;-65
2021/03/11 00:49:29;;;;;;;55.85;31.15;;;102.90;1561.60;;;;;;5074944;28;20032;-65
2021/03/11 00:51:55;;;;;;;62.05;33.75;;;102.90;1561.60;;;;;;5074802;28;20056;-65
2021/03/11 00:54:20;;;;;;;61.25;33.17;;;102.90;1536.00;;;;;;5075364;28;20036;-64
2021/03/11 00:56:46;;;;;;;63.55;33.42;;;102.90;1536.00;;;;;;5074921;28;20020;-64
2021/03/11 00:59:12;;;;;;;63.55;34.28;;;102.80;1536.00;;;;;;5074842;28;20379;-65
2021/03/11 01:01:37;;;;;;;64.45;34.50;;;102.80;1536.00;;;;;;5074817;28;20072;-65
2021/03/11 01:04:05;;;;;;;59.13;33.75;;;102.80;1536.00;;;;;;5074883;28;20370;-65
2021/03/11 01:06:31;;;;;;;60.70;34.25;;;102.80;1536.00;;;;;;5074605;28;20107;-65
2021/03/11 01:08:57;;;;;;;62.00;32.90;;;102.80;1536.00;;;;;;5074775;28;20566;-64
2021/03/11 01:11:23;;;;;;;66.50;33.45;;;102.80;1561.60;;;;;;5074733;28;20458;-64
2021/03/11 01:13:48;;;;;;;62.20;34.35;;;102.80;1536.00;;;;;;5074718;28;20558;-65
2021/03/11 01:16:14;;;;;;;58.30;32.58;;;102.70;1536.00;;;;;;5059704;28;20016;-65
2021/03/11 01:18:40;;;;;;;65.57;33.13;;;102.80;1510.40;;;;;;5093846;28;20082;-64
2021/03/11 01:21:06;;;;;;;65.90;36.65;;;102.80;1536.00;;;;;;5094061;28;20054;-65
2021/03/11 01:23:31;;;;;;;57.17;31.58;;;102.80;1536.00;;;;;;5091052;28;20029;-64
2021/03/11 01:25:57;;;;;;;61.00;33.40;;;102.80;1510.40;;;;;;5075963;28;20031;-64
2021/03/11 01:28:23;;;;;;;63.22;33.38;;;102.80;1536.00;;;;;;5094168;28;20039;-64
2021/03/11 01:30:48;;;;;;;66.35;34.13;;;102.80;1536.00;;;;;;5093757;28;20024;-65
2021/03/11 01:33:14;;;;;;;59.42;33.42;;;102.80;1536.00;;;;;;5093682;28;20035;-64
2021/03/11 01:35:40;;;;;;;61.17;33.15;;;102.80;1536.00;;;;;;5093927;28;20039;-65
2021/03/11 01:38:06;;;;;;;58.83;33.10;;;102.80;1536.00;;;;;;5090029;28;20033;-65
2021/03/11 01:40:33;;;;;;;62.28;32.97;;;102.60;1587.20;;;;;;5073452;28;20107;-65
2021/03/11 01:43:02;;;;;;;64.82;33.30;;;77.70;1612.80;;;;;;5089458;28;20020;-64
2021/03/11 01:45:28;;;;;;;64.07;33.65;;;77.60;1664.00;;;;;;5093541;28;20059;-65
2021/03/11 01:47:54;;;;;;;68.38;35.60;;;77.60;1664.00;;;;;;5093670;28;20063;-64
2021/03/11 01:50:20;;;;;;;60.85;33.85;;;77.60;1638.40;;;;;;5093171;28;20116;-63
2021/03/11 01:52:46;;;;;;;69.20;34.25;;;77.60;1664.00;;;;;;5069396;28;20052;-64
2021/03/11 01:55:13;;;;;;;72.15;37.13;;;77.40;1740.80;;;;;;5088534;28;20532;-65
2021/03/11 01:57:39;;;;;;;71.00;37.10;;;77.40;1740.80;;;;;;5094208;28;20386;-65
2021/03/11 02:00:09;;;;;;;92.43;41.22;;;77.50;1740.80;;;;;;5093100;28;20127;-63
2021/03/11 02:02:35;;;;;;;75.68;37.03;;;77.30;1766.40;;;;;;5093536;28;20031;-64
2021/03/11 02:05:04;;;;;;;70.35;36.85;;;77.30;1792.00;;;;;;5092517;28;20377;-64
2021/03/11 02:07:30;;;;;;;;;;;77.30;1766.40;;;;;;5093022;28;20084;-63
2021/03/11 02:09:55;;;;;;;74.22;35.53;;;77.30;1766.40;;;;;;5092564;28;19935;-63
2021/03/11 02:12:55;;;;;;;68.78;36.25;;;77.20;1766.40;;;;;;5091988;28;20074;-63
2021/03/11 02:15:27;;;;;;;71.28;35.75;;;77.10;1792.00;;;;;;5073832;28;20119;-62
2021/03/11 02:18:05;;;;;;;71.30;36.15;;;77.10;1817.60;;;;;;5092529;28;20016;-62
2021/03/11 02:20:52;;;;;;;67.18;36.63;;;77.00;1817.60;;;;;;5091702;28;20044;-62
2021/03/11 02:24:00;;;;;;;74.53;38.17;;;76.90;1843.20;;;;;;5080951;28;20513;-63
2021/03/11 02:26:53;;;;;;;75.65;41.80;;;76.90;1843.20;;;;;;5072764;28;20021;-63
2021/03/11 02:29:37;;;;;;;77.30;38.50;;;77.00;1868.80;;;;;;5054827;28;20382;-64
2021/03/11 02:32:05;;;;;;;71.28;37.88;;;76.90;1894.40;;;;;;5072244;28;20425;-63
2021/03/11 02:34:34;;;;;;;72.53;40.03;;;77.00;1945.60;;;;;;5073147;28;20142;-65
2021/03/11 02:37:11;;;;;;;73.65;39.17;;;77.00;1996.80;;;;;;5055823;28;20028;-64
2021/03/11 02:39:42;;;;;;;72.78;39.70;;;76.90;2022.40;;;;;;5072890;28;20037;-63
2021/03/11 02:42:09;;;;;;;74.03;39.55;;;76.90;2022.40;;;;;;5072912;28;20024;-63
2021/03/11 02:44:36;;;;;;;71.90;40.13;;;76.90;2022.40;;;;;;5073282;28;20047;-65
2021/03/11 02:47:02;;;;;;;76.43;39.78;;;76.90;2022.40;;;;;;5073091;28;20082;-64
2021/03/11 02:49:28;;;;;;;64.93;38.80;;;77.00;2048.00;;;;;;5073072;28;20021;-64
2021/03/11 02:51:54;;;;;;;72.20;38.80;;;76.90;2073.60;;;;;;5072406;28;20051;-65
2021/03/11 02:54:21;;;;;;;77.68;40.28;;;76.80;2073.60;;;;;;5060624;28;20351;-62
2021/03/11 02:56:48;;;;;;;70.07;37.50;;;76.80;2099.20;;;;;;5052078;28;20020;-63
2021/03/11 02:59:15;;;;;;;74.60;39.45;;;76.80;2099.20;;;;;;5052221;28;20394;-63
2021/03/11 03:01:42;;;;;;;72.70;41.75;;;52.10;2124.80;;;;;;5051882;28;20029;-63
2021/03/11 03:04:11;;;;;;;74.20;39.70;;;52.10;2124.80;;;;;;5052301;28;20370;-63
2021/03/11 03:06:39;;;;;;;72.28;38.40;;;52.10;2124.80;;;;;;5052314;28;20017;-63
2021/03/11 03:09:06;;;;;;;70.18;39.17;;;52.10;2150.40;;;;;;5051885;28;20051;-63
2021/03/11 03:11:34;;;;;;;73.90;39.05;;;52.10;2176.00;;;;;;5052105;28;20021;-63
2021/03/11 03:14:02;;;;;;;74.10;38.20;;;52.10;2150.40;;;;;;5051674;28;20535;-64
2021/03/11 03:16:28;;;;;;;73.82;39.10;;;76.80;2124.80;;;;;;5064083;28;20429;-63
2021/03/11 03:18:55;;;;;;;70.10;38.35;;;52.10;2150.40;;;;;;5053894;28;20021;-64
2021/03/11 03:21:22;;;;;;;71.38;39.47;;;52.10;2150.40;;;;;;5034375;28;20120;-64
2021/03/11 03:23:50;;;;;;;73.38;38.95;;;76.80;2124.80;;;;;;5051422;28;20040;-63
2021/03/11 03:26:16;;;;;;;75.30;40.15;;;76.80;2124.80;;;;;;5051746;28;20017;-63
2021/03/11 03:28:44;;;;;;;73.82;39.05;;;76.80;2099.20;;;;;;5052221;28;20029;-63
2021/03/11 03:31:10;;;;;;;68.35;38.25;;;52.10;2124.80;;;;;;5051533;28;20036;-64
2021/03/11 03:33:36;;;;;;;72.07;38.55;;;52.00;2124.80;;;;;;5052474;28;20472;-63
2021/03/11 03:36:03;;;;;;;67.70;37.83;;;76.80;2099.20;;;;;;5052367;28;20078;-64
2021/03/11 03:38:28;;;;;;;73.80;38.40;;;76.90;2099.20;;;;;;5052712;28;20617;-63
2021/03/11 03:40:58;;;;;;;69.43;38.25;;;77.00;2073.60;;;;;;5052116;28;20104;-64
2021/03/11 03:43:25;;;;;;;76.97;38.90;;;77.00;2073.60;;;;;;5053140;28;20037;-63
2021/03/11 03:45:56;;;;;;;71.95;38.92;;;76.90;2099.20;;;;;;5056271;28;20400;-63
2021/03/11 03:48:36;;;;;;;74.25;39.22;;;76.80;2099.20;;;;;;5056133;28;20025;-63
2021/03/11 03:51:02;;;;;;;68.85;39.40;;;77.00;2073.60;;;;;;5061127;28;20131;-63
2021/03/11 03:53:34;;;;;;;75.63;40.17;;;77.10;2048.00;;;;;;5057732;28;20032;-63
2021/03/11 03:56:01;;;;;;;69.63;38.95;;;77.20;1996.80;;;;;;5076260;28;20078;-62
2021/03/11 03:58:28;;;;;;;69.78;38.67;;;77.20;1996.80;;;;;;5075976;28;20120;-64
2021/03/11 04:00:58;;;;;;;72.15;36.35;;;77.30;1945.60;;;;;;5076041;28;20028;-63
2021/03/11 04:03:25;;;;;;;67.15;38.92;;;77.40;1920.00;;;;;;5057467;28;20108;-64
2021/03/11 04:05:55;;;;;;;78.45;40.03;;;77.30;1945.60;;;;;;5041020;28;20021;-63
2021/03/11 04:08:23;;;;;;;67.55;39.33;;;77.10;1920.00;;;;;;5055677;28;20680;-63
2021/03/11 04:10:49;;;;;;;72.75;40.80;;;77.00;1920.00;;;;;;5037086;28;20036;-63
2021/03/11 04:13:16;;;;;;;70.03;38.13;;;77.00;1920.00;;;;;;5055372;28;20107;-63
2021/03/11 04:15:41;;;;;;;72.38;39.63;;;77.00;1945.60;;;;;;5055170;28;20418;-63
2021/03/11 04:18:09;;;;;;;71.28;39.50;;;77.00;1971.20;;;;;;5055073;28;20075;-64
2021/03/11 04:20:36;;;;;;;73.20;40.72;;;76.90;1971.20;;;;;;5055099;28;20466;-63
2021/03/11 04:23:02;;;;;;;76.32;39.20;;;76.90;1971.20;;;;;;5036299;28;20390;-63
2021/03/11 04:25:28;;;;;;;77.03;42.45;;;76.80;1971.20;;;;;;5055031;28;20048;-63
2021/03/11 04:27:54;;;;;;;77.15;41.80;;;76.80;1971.20;;;;;;5055420;28;20119;-63
2021/03/11 04:30:21;;;;;;;73.38;41.20;;;52.10;1971.20;;;;;;5054859;28;20028;-63
2021/03/11 04:32:47;;;;;;;83.65;44.28;;;52.10;1971.20;;;;;;5061547;28;20077;-63
2021/03/11 04:35:13;;;;;;;83.80;44.28;;;52.10;1971.20;;;;;;5061565;28;20064;-63
2021/03/11 04:37:39;;;;;;;76.03;43.17;;;52.10;1971.20;;;;;;5054647;28;20017;-63
2021/03/11 04:40:07;;;;;;;85.43;43.08;;;52.10;1945.60;;;;;;5054915;28;20041;-63
2021/03/11 04:42:34;;;;;;;81.22;42.78;;;52.10;1996.80;;;;;;5054611;28;20811;-63
2021/03/11 04:45:02;;;;;;;76.80;42.30;;;52.00;1971.20;;;;;;5054274;28;20032;-63
2021/03/11 04:47:30;;;;;;;82.07;43.72;;;52.00;1996.80;;;;;;5054794;28;20032;-63
2021/03/11 04:49:59;;;;;;;76.70;42.03;;;52.00;1996.80;;;;;;5054470;28;20112;-64
2021/03/11 04:52:25;;;;;;;78.55;41.85;;;52.00;1996.80;;;;;;5071499;28;20045;-64
2021/03/11 04:54:52;;;;;;;84.47;41.40;;;52.00;1971.20;;;;;;5055507;28;20114;-64
2021/03/11 04:57:17;;;;;;;86.10;42.58;;;52.00;1971.20;;;;;;5075215;28;20025;-64
2021/03/11 04:59:43;;;;;;;81.25;42.55;;;52.00;1971.20;;;;;;5074725;28;20044;-62
2021/03/11 05:02:10;;;;;;;83.63;42.30;;;51.90;1971.20;;;;;;5075182;28;20021;-65
2021/03/11 05:04:36;;;;;;;77.95;40.53;;;51.90;1996.80;;;;;;5074219;28;20033;-64
2021/03/11 05:07:02;;;;;;;69.93;39.55;;;51.90;1996.80;;;;;;5074842;28;20024;-64
2021/03/11 05:09:28;;;;;;;82.10;41.42;;;52.10;1945.60;;;;;;5074821;28;20021;-64
2021/03/11 05:11:54;;;;;;;89.22;42.08;;;77.00;1894.40;;;;;;5074695;28;20025;-64
2021/03/11 05:14:19;;;;;;;76.18;39.72;;;77.30;1996.80;;;;;;5074899;28;20473;-63
2021/03/11 05:16:45;;;;;;;77.80;39.67;;;77.30;1766.40;;;;;;5074613;28;20020;-63
2021/03/11 05:19:11;;;;;;;77.90;38.00;;;77.30;1792.00;;;;;;5072973;28;20059;-64
2021/03/11 05:21:37;;;;;;;78.50;39.88;;;77.40;1792.00;;;;;;5073936;28;20028;-64
2021/03/11 05:24:05;;;;;;;83.68;43.67;;;77.20;1843.20;;;;;;5077367;28;20032;-64
2021/03/11 05:26:31;;;;;;;72.18;40.70;;;77.10;1843.20;;;;;;5093533;28;20028;-65
2021/03/11 05:28:56;;;;;;;78.50;41.10;;;77.10;1868.80;;;;;;5082109;28;20038;-64
2021/03/11 05:31:22;;;;;;;82.07;42.80;;;77.20;1868.80;;;;;;5094973;28;20016;-65
2021/03/11 05:33:48;;;;;;;87.68;41.28;;;77.40;1843.20;;;;;;5094381;28;20024;-63
2021/03/11 05:36:13;;;;;;;80.20;41.40;;;77.50;1817.60;;;;;;5088007;28;20028;-65
2021/03/11 05:38:43;;;;;;;75.78;38.65;;;77.70;1792.00;;;;;;5074997;28;20074;-65
2021/03/11 05:41:10;;;;;;;81.97;39.95;;;102.40;1715.20;;;;;;5075815;28;20020;-65
2021/03/11 05:43:38;;;;;;;72.03;39.53;;;102.50;1689.60;;;;;;5074820;28;20107;-64
2021/03/11 05:46:05;;;;;;;74.13;38.30;;;102.60;1689.60;;;;;;5076201;28;20042;-67
2021/03/11 05:48:34;;;;;;;74.43;37.58;;;102.60;1689.60;;;;;;5074727;28;20028;-67
2021/03/11 05:51:00;;;;;;;82.15;40.03;;;102.70;1689.60;;;;;;5073801;28;20059;-65
2021/03/11 05:53:25;;;;;;;69.78;37.75;;;102.70;1689.60;;;;;;5073487;28;20032;-65
2021/03/11 05:55:51;;;;;;;75.38;38.33;;;102.80;1689.60;;;;;;5073144;28;20489;-65
2021/03/11 05:58:19;;;;;;;75.82;37.75;;;102.80;1689.60;;;;;;5073279;28;20048;-65
2021/03/11 06:00:46;;;;;;;66.63;35.85;;;102.80;1638.40;;;;;;5055764;28;20036;-67
2021/03/11 06:03:12;;;;;;;67.88;37.67;;;102.90;1638.40;;;;;;5073699;28;20122;-65
2021/03/11 06:05:38;;;;;;;69.82;35.47;;;103.00;1638.40;;;;;;5073253;28;20037;-66
2021/03/11 06:08:07;;;;;;;71.97;37.30;;;103.10;1638.40;;;;;;5054624;28;20079;-65
2021/03/11 06:10:35;;;;;;;72.30;36.72;;;103.10;1587.20;;;;;;5069396;28;20079;-65
2021/03/11 06:13:04;;;;;;;66.38;35.90;;;103.20;1587.20;;;;;;5073478;28;20098;-63
2021/03/11 06:15:37;;;;;;;65.30;37.03;;;103.20;1587.20;;;;;;5072331;28;20032;-64
2021/03/11 06:18:07;;;;;;;64.20;36.30;;;103.30;1587.20;;;;;;5054604;28;20024;-64
2021/03/11 06:20:34;;;;;;;66.97;34.53;;;128.00;1587.20;;;;;;5072239;28;20044;-67
2021/03/11 06:23:00;;;;;;;60.70;33.35;;;128.10;1561.60;;;;;;5072399;28;20046;-65
2021/03/11 06:25:28;;;;;;;47.50;28.90;;;128.20;1510.40;;;;;;5072304;28;20024;-64
2021/03/11 06:27:53;;;;;;;56.78;28.75;;;128.30;1510.40;;;;;;5072361;28;20017;-64
2021/03/11 06:30:35;;;;;;;48.72;26.85;;;128.30;1484.80;;;;;;5072598;28;20086;-66
2021/03/11 06:33:02;;;;;;;46.70;25.40;;;128.40;1459.20;;;;;;5069709;28;20013;-66
2021/03/11 06:35:28;;;;;;;49.78;26.02;;;128.60;1459.20;;;;;;5072190;28;20035;-64
2021/03/11 06:37:54;;;;;;;46.00;26.45;;;128.70;1459.20;;;;;;5072510;28;20016;-64
2021/03/11 06:40:25;;;;;;;51.10;28.13;;;128.70;1433.60;;;;;;5071790;28;20024;-63
2021/03/11 06:42:52;;;;;;;46.10;26.95;;;128.80;1408.00;;;;;;5072046;28;20020;-63
2021/03/11 06:45:26;;;;;;;48.33;26.90;;;128.80;1408.00;;;;;;5071774;28;20016;-64
2021/03/11 06:48:12;;;;;;;47.22;26.10;;;128.90;1408.00;;;;;;5071785;28;20467;-63
2021/03/11 06:50:38;;;;;;;46.53;25.92;;;153.70;1408.00;;;;;;5070273;28;20023;-64
2021/03/11 06:53:04;;;;;;;49.58;27.02;;;153.80;1382.40;;;;;;5057055;28;20045;-63
2021/03/11 06:55:31;;;;;;;50.53;29.30;;;153.80;1356.80;;;;;;5037436;28;20036;-63
2021/03/11 06:58:14;;;;;;;58.28;29.45;;;153.90;1331.20;;;;;;5052055;28;20018;-63
2021/03/11 07:00:40;;;;;;;59.55;31.30;;;154.00;1331.20;;;;;;5058697;28;20035;-75
2021/03/11 07:03:06;;;;;;;58.88;31.13;;;154.10;1331.20;;;;;;5056826;28;20099;-64
2021/03/11 07:05:38;;;;;;;54.58;31.38;;;154.10;1331.20;;;;;;5053265;28;20556;-65
2021/03/11 07:08:08;;;;;;;57.03;31.20;;;154.00;1356.80;;;;;;5054631;28;20032;-65
2021/03/11 07:10:36;;;;;;;57.70;32.58;;;154.10;1356.80;;;;;;5052896;28;20040;-65
2021/03/11 07:13:03;;;;;;;61.88;33.75;;;154.20;1382.40;;;;;;5034631;28;20471;-65
2021/03/11 07:15:32;;;;;;;61.25;32.17;;;154.30;1382.40;;;;;;5052564;28;20477;-64
2021/03/11 07:17:58;;;;;;;57.53;32.55;;;154.30;1382.40;;;;;;5054217;28;20029;-64
2021/03/11 07:20:31;;;;;;;49.17;29.40;;;154.40;1382.40;;;;;;5051924;28;20064;-64
2021/03/11 07:23:08;;;;;;;57.05;32.78;;;154.40;1356.80;;;;;;5034698;28;20423;-64
2021/03/11 07:25:35;;;;;;;59.40;32.63;;;154.50;1356.80;;;;;;5052512;28;20701;-64
2021/03/11 07:28:03;;;;;;;57.88;30.67;;;179.20;1356.80;;;;;;5052456;28;20028;-65
2021/03/11 07:30:30;;;;;;;53.15;30.92;;;179.20;1356.80;;;;;;5052204;28;20025;-65
2021/03/11 07:33:03;;;;;;;55.10;29.65;;;179.30;1356.80;;;;;;5051270;28;20020;-64
2021/03/11 07:35:31;;;;;;;53.40;32.28;;;179.30;1382.40;;;;;;5051995;28;20025;-65
2021/03/11 07:38:00;;;;;;;55.17;30.80;;;179.50;1356.80;;;;;;5051803;28;20352;-68
2021/03/11 07:40:27;;;;;;;56.15;32.58;;;179.40;1356.80;;;;;;5057241;28;20044;-66
2021/03/11 07:42:53;;;;;;;56.17;32.05;;;179.40;1356.80;;;;;;5058525;28;20374;-64
2021/03/11 07:45:19;;;;;;;47.95;27.20;;;179.40;1382.40;;;;;;5059062;28;20029;-65
2021/03/11 07:47:45;;;;;;;49.85;29.05;;;179.30;1356.80;;;;;;5051623;28;20029;-64
2021/03/11 07:50:13;;;;;;;57.90;29.25;;;179.40;1356.80;;;;;;5033626;28;20017;-63
2021/03/11 07:52:39;;;;;;;55.15;31.55;;;179.50;1382.40;;;;;;5086800;28;20109;-63
2021/03/11 07:55:07;;;;;;;59.67;33.30;;;179.50;1356.80;;;;;;5091608;28;20016;-64
2021/03/11 07:57:47;;;;;;;64.55;36.13;;;179.60;1382.40;;;;;;5073341;28;20110;-63
2021/03/11 08:00:15;;;;;;;60.15;34.60;;;179.60;1408.00;;;;;;5092327;28;20107;-63
2021/03/11 08:02:50;;;;;;;59.20;33.90;;;179.60;1382.40;;;;;;5092048;28;20078;-64
2021/03/11 08:05:27;;;;;;;54.08;32.00;;;179.70;1382.40;;;;;;5088743;28;20059;-64
2021/03/11 08:08:17;;;;;;;59.63;34.63;;;179.80;1331.20;;;;;;5068010;28;20024;-64
2021/03/11 08:10:50;;;;;;;67.50;38.00;;;179.80;1356.80;;;;;;5080879;28;20081;-64
2021/03/11 08:13:26;;;;;;;74.35;38.55;;;179.90;1382.40;;;;;;5092474;28;20074;-65
2021/03/11 08:15:52;;;;;;;73.40;40.05;;;180.00;1382.40;;;;;;5092599;28;20024;-63
2021/03/11 08:18:33;;;;;;;69.45;37.63;;;179.90;1408.00;;;;;;5080002;28;20027;-63
2021/03/11 08:21:06;;;;;;;72.55;37.50;;;180.10;1561.60;;;;;;5071635;28;20457;-66
2021/03/11 08:23:35;;;;;;;67.35;39.38;;;180.00;1382.40;;;;;;5053665;28;20574;-67
2021/03/11 08:26:04;;;;;;;70.25;40.22;;;180.00;1408.00;;;;;;5071819;28;20100;-64
2021/03/11 08:28:29;;;;;;;68.22;38.70;;;180.00;1408.00;;;;;;5071954;28;20021;-64
2021/03/11 08:30:57;;;;;;;70.07;41.05;;;180.00;1433.60;;;;;;5074245;28;20029;-69
2021/03/11 08:33:25;;;;;;;72.28;39.88;;;180.10;1433.60;;;;;;5080773;28;20021;-69
2021/03/11 08:35:55;;;;;;;66.38;39.28;;;180.10;1433.60;;;;;;5078344;28;20017;-66
2021/03/11 08:38:21;;;;;;;61.45;33.80;;;180.00;1408.00;;;;;;5058279;28;20032;-65
2021/03/11 08:41:10;;;;;;;58.00;33.60;;;180.00;1408.00;;;;;;5075197;28;20021;-65
2021/03/11 08:43:38;;;;;;;62.17;34.30;;;179.80;1408.00;;;;;;5086978;28;20103;-65
2021/03/11 08:46:08;;;;;;;58.30;31.90;;;180.00;1408.00;;;;;;5090500;28;20031;-67
2021/03/11 08:48:49;;;;;;;60.83;33.20;;;204.80;1356.80;;;;;;5094923;28;20417;-67
2021/03/11 08:51:17;;;;;;;51.83;29.38;;;180.00;1356.80;;;;;;5094461;28;20032;-67
2021/03/11 08:53:51;;;;;;;56.33;35.83;;;180.00;1331.20;;;;;;5083455;28;20036;-66
2021/03/11 08:56:16;;;;;;;42.85;24.98;;;179.90;1331.20;;;;;;5076246;28;20028;-67
2021/03/11 08:58:54;;;;;;;41.35;24.30;;;180.00;1254.40;;;;;;5094739;28;20370;-65
2021/03/11 09:01:37;;;;;;;45.88;27.08;;;204.80;1254.40;;;;;;5076916;28;20020;-66
2021/03/11 09:04:06;;;;;;;44.33;25.67;;;205.00;1228.80;;;;;;5094937;28;20023;-65
2021/03/11 09:06:52;;;;;;;49.30;27.30;;;205.00;1228.80;;;;;;5094524;28;20024;-66
2021/03/11 09:09:49;;;;;;;41.47;25.90;;;205.10;1228.80;;;;;;5095086;28;20016;-68
2021/03/11 09:12:30;;;;;;;40.13;25.38;;;205.20;1228.80;;;;;;5094645;28;20024;-66
2021/03/11 09:14:58;;;;;;;48.30;26.67;;;205.00;1254.40;;;;;;5094095;28;20130;-65
2021/03/11 09:17:24;;;;;;;47.00;28.13;;;205.00;1254.40;;;;;;5094766;28;20027;-67
2021/03/11 09:19:51;;;;;;;49.40;29.98;;;205.00;1280.00;;;;;;5094243;28;20059;-66
2021/03/11 09:22:20;;;;;;;48.55;27.35;;;205.20;1254.40;;;;;;5076586;28;20477;-66
2021/03/11 09:24:58;;;;;;;45.25;26.83;;;205.50;1228.80;;;;;;5081099;28;20040;-65
2021/03/11 09:27:28;;;;;;;43.30;25.80;;;205.50;1228.80;;;;;;5069518;28;20031;-66
2021/03/11 09:29:58;;;;;;;44.35;24.17;;;;;;;;;;5094353;28;20029;-66
2021/03/11 09:32:30;;;;;;;43.17;24.92;;;230.50;1177.60;;;;;;5094487;28;20031;-67
2021/03/11 09:34:59;;;;;;;44.33;26.02;;;205.70;1152.00;;;;;;5093905;28;20089;-65
2021/03/11 09:37:48;;;;;;;49.17;26.15;;;230.40;1152.00;;;;;;5094101;28;20016;-66
2021/03/11 09:40:21;;;;;;;43.40;25.65;;;205.70;1177.60;;;;;;5093716;28;20497;-67
2021/03/11 09:42:59;;;;;;;38.33;24.52;;;230.40;1126.40;;;;;;5093718;28;20063;-66
2021/03/11 09:45:43;;;;;;;40.90;24.47;;;230.50;1126.40;;;;;;5093783;28;20020;-67
2021/03/11 09:48:09;;;;;;;41.65;24.40;;;230.50;1126.40;;;;;;5093793;28;20079;-66
2021/03/11 09:50:37;;;;;;;44.83;25.90;;;230.60;1126.40;;;;;;5093424;28;20082;-67
2021/03/11 09:53:03;;;;;;;45.08;25.23;;;230.60;1126.40;;;;;;5093536;28;20427;-66
2021/03/11 09:55:30;;;;;;;43.60;24.10;;;230.60;1100.80;;;;;;5093645;28;20028;-66
2021/03/11 09:57:56;;;;;;;38.35;22.88;;;230.60;1126.40;;;;;;5093956;28;20051;-67
2021/03/11 10:00:22;;;;;;;44.42;24.75;;;230.80;1075.20;;;;;;5093570;28;20044;-66
2021/03/11 10:02:53;;;;;;;33.10;21.20;;;230.50;1100.80;;;;;;5093256;28;20050;-66
2021/03/11 10:05:19;;;;;;;37.25;22.80;;;230.50;1049.60;;;;;;5093490;28;20030;-67
2021/03/11 10:07:57;;;;;;;34.42;21.98;;;230.70;1024.00;;;;;;5057137;28;20028;-67
2021/03/11 10:10:24;;;;;;;32.80;22.27;;;230.60;1049.60;;;;;;5053486;28;20017;-65
2021/03/11 10:12:50;;;;;;;35.50;22.48;;;230.70;1024.00;;;;;;5071587;28;20028;-67
2021/03/11 10:15:18;;;;;;;43.55;25.35;;;230.70;1049.60;;;;;;5070336;28;20028;-67
2021/03/11 10:17:44;;;;;;;37.83;23.65;;;230.70;1049.60;;;;;;5071201;28;20458;-67
2021/03/11 10:20:22;;;;;;;37.58;22.05;;;230.90;1049.60;;;;;;5055151;28;20071;-68
2021/03/11 10:22:47;;;;;;;41.30;25.02;;;231.10;1049.60;;;;;;5075776;28;20067;-67
2021/03/11 10:25:15;;;;;;;40.53;22.42;;;231.30;1024.00;;;;;;5074172;28;20040;-67
2021/03/11 10:27:47;;;;;;;35.88;21.42;;;256.10;1024.00;;;;;;5074533;28;20039;-67
2021/03/11 10:30:20;;;;;;;29.10;20.27;;;256.10;972.80;;;;;;5074218;28;20135;-68
2021/03/11 10:32:57;;;;;;;32.55;20.90;;;256.10;1152.00;;;;;;5074478;28;20021;-67
2021/03/11 10:35:27;;;;;;;33.63;22.10;;;256.30;972.80;;;;;;5074247;28;20108;-67
2021/03/11 10:37:54;;;;;;;30.65;20.55;;;256.40;947.20;;;;;;5074457;28;20024;-67
2021/03/11 10:40:25;;;;;;;37.42;21.40;;;256.40;947.20;;;;;;5074129;28;20028;-66
2021/03/11 10:42:54;;;;;;;39.22;22.83;;;256.30;947.20;;;;;;5074180;28;20020;-64
2021/03/11 10:45:37;;;;;;;39.50;21.35;;;256.40;947.20;;;;;;5075027;28;20031;-65
2021/03/11 10:48:06;;;;;;;28.35;19.35;;;256.80;947.20;;;;;;5073244;28;20422;-65
2021/03/11 10:50:53;;;;;;;26.23;16.58;;;281.60;896.00;;;;;;5088080;28;20069;-65
2021/03/11 10:53:35;;;;;;;28.33;18.00;;;281.70;896.00;;;;;;5092233;28;20035;-67
2021/03/11 10:56:06;;;;;;;30.65;19.95;;;281.90;896.00;;;;;;5088391;28;20058;-66
2021/03/11 10:58:32;;;;;;;27.92;18.48;;;281.90;896.00;;;;;;5057528;28;20029;-67
2021/03/11 11:01:21;;;;;;;26.75;17.50;;;282.00;844.80;;;;;;5081126;28;20370;-68
2021/03/11 11:03:46;;;;;;;;;;;282.10;844.80;;;;;;5075364;28;20039;-66
2021/03/11 11:06:13;;;;;;;32.03;17.40;;;281.90;819.20;;;;;;5094361;28;19908;-68
2021/03/11 11:08:43;;;;;;;26.05;16.77;;;281.60;844.80;;;;;;5093923;28;20020;-66
2021/03/11 11:11:10;;;;;;;25.55;17.17;;;281.60;844.80;;;;;;5092624;28;20068;-66
2021/03/11 11:13:35;;;;;;;26.80;17.27;;;281.60;870.40;;;;;;5075091;28;20038;-69
2021/03/11 11:16:01;;;;;;;29.92;18.92;;;281.80;844.80;;;;;;5092759;28;20031;-67
2021/03/11 11:18:28;;;;;;;29.80;18.23;;;281.90;844.80;;;;;;5092906;28;20028;-67
2021/03/11 11:20:53;;;;;;;31.90;18.85;;;282.10;844.80;;;;;;5092362;28;20487;-67
2021/03/11 11:23:19;;;;;;;25.98;16.98;;;282.30;844.80;;;;;;5092931;28;20028;-67
2021/03/11 11:25:45;;;;;;;30.98;18.25;;;282.50;844.80;;;;;;5092526;28;20024;-67
2021/03/11 11:28:11;;;;;;;25.85;18.13;;;307.20;844.80;;;;;;5075122;28;20024;-67
2021/03/11 11:30:36;;;;;;;29.25;18.27;;;307.20;844.80;;;;;;5092339;28;20031;-68
2021/03/11 11:33:02;;;;;;;31.88;18.15;;;307.30;844.80;;;;;;5089766;28;20027;-67
2021/03/11 11:35:28;;;;;;;23.98;15.88;;;307.20;844.80;;;;;;5091747;28;20394;-66
2021/03/11 11:37:54;;;;;;;31.98;18.17;;;307.20;844.80;;;;;;5091558;28;20064;-66
2021/03/11 11:40:20;;;;;;;27.58;16.95;;;307.20;819.20;;;;;;5078869;28;20032;-67
2021/03/11 11:42:46;;;;;;;26.08;17.33;;;282.10;819.20;;;;;;5092137;28;20016;-66
2021/03/11 11:45:13;;;;;;;26.27;17.52;;;282.40;819.20;;;;;;5088652;28;20394;-67
2021/03/11 11:47:39;;;;;;;25.25;16.92;;;282.40;793.60;;;;;;5074200;28;20020;-67
2021/03/11 11:50:07;;;;;;;26.35;16.98;;;307.20;819.20;;;;;;5079886;28;20526;-64
2021/03/11 11:52:33;;;;;;;38.45;18.77;;;307.30;870.40;;;;;;5089879;28;20078;-65
2021/03/11 11:54:59;;;;;;;27.77;16.63;;;307.40;819.20;;;;;;5092389;28;20531;-65
2021/03/11 11:57:25;;;;;;;30.92;18.70;;;307.50;819.20;;;;;;5091689;28;20099;-66
2021/03/11 11:59:51;;;;;;;26.45;18.13;;;307.70;793.60;;;;;;5092015;28;20113;-65
2021/03/11 12:02:16;;;;;;;26.77;17.00;;;307.70;768.00;;;;;;5091896;28;20020;-64
2021/03/11 12:04:42;;;;;;;22.52;17.02;;;307.80;793.60;;;;;;5093127;28;20043;-66
2021/03/11 12:07:09;;;;;;;25.27;16.25;;;307.90;768.00;;;;;;5095851;28;20027;-65
2021/03/11 12:09:35;;;;;;;25.58;16.65;;;308.00;768.00;;;;;;5084802;28;20027;-64
2021/03/11 12:12:01;;;;;;;25.15;16.35;;;332.80;768.00;;;;;;5096217;28;20028;-66